Time;durP1;ratioP1;P1;durP2;ratioP2;P2;SDS_P1;SDS_P2;PMS_P1;PMS_P2;Temp;Humidity;BMP_temperature;BMP_pressure;BME280_temperature;BME280_humidity;BME280_pressure;Samples;Min_cycle;Max_cycle;Signal;HPM_P1;HPM_P2
2023/07/28 00:02:22;;;;;;;;;;;15.20;99.90;;;;;;5036995;28;19917;-86
2023/07/28 00:04:48;;;;;;;;;;;15.20;99.90;;;;;;5053650;28;20314;-86
2023/07/28 00:07:13;;;;;;;;;;;15.20;99.90;;;;;;5036909;28;19920;-87
2023/07/28 00:09:39;;;;;;;;;;;15.20;99.90;;;;;;5036906;28;19912;-87
2023/07/28 00:12:05;;;;;;;;;;;15.20;99.90;;;;;;5036806;28;19916;-86
2023/07/28 00:14:30;;;;;;;;;;;15.20;99.90;;;;;;5036591;28;19912;-86
2023/07/28 00:16:57;;;;;;;;;;;15.20;99.90;;;;;;5052915;28;20433;-87
2023/07/28 00:19:22;;;;;;;;;;;15.20;99.90;;;;;;5036341;28;19913;-87
2023/07/28 00:21:48;;;;;;;;;;;15.20;99.90;;;;;;5053052;28;19909;-87
2023/07/28 00:24:16;;;;;;;;;;;15.20;99.90;;;;;;5036593;28;19908;-87
2023/07/28 00:26:42;;;;;;;;;;;15.20;99.90;;;;;;5053336;28;19915;-87
2023/07/28 00:29:08;;;;;;;;;;;15.20;99.90;;;;;;5035991;28;19909;-86
2023/07/28 00:31:34;;;;;;;;;;;15.20;99.90;;;;;;5052892;28;20667;-86
2023/07/28 00:34:01;;;;;;;;;;;15.20;99.90;;;;;;5036289;28;19919;-85
2023/07/28 00:36:27;;;;;;;;;;;15.20;99.90;;;;;;5052548;28;19916;-85
2023/07/28 00:39:11;;;;;;;;;;;15.20;99.90;;;;;;5036037;28;20605;-86
2023/07/28 00:41:36;;;;;;;;;;;15.20;99.90;;;;;;5069019;28;19916;-86
2023/07/28 00:44:02;;;;;;;;;;;15.20;99.90;;;;;;5051922;28;19908;-85
2023/07/28 00:46:27;;;;;;;;;;;15.20;99.90;;;;;;5052263;28;19909;-86
2023/07/28 00:48:53;;;;;;;;;;;15.20;99.90;;;;;;5035746;28;19909;-86
2023/07/28 00:51:19;;;;;;;;;;;15.20;99.90;;;;;;5054312;28;20355;-86
2023/07/28 00:53:45;;;;;;;;;;;15.20;99.90;;;;;;5035664;28;19909;-86
2023/07/28 00:56:11;;;;;;;;;;;15.20;99.90;;;;;;5053155;28;19962;-85
2023/07/28 00:58:36;;;;;;;;;;;15.30;99.90;;;;;;5036158;28;20286;-86
2023/07/28 01:01:02;;;;;;;;;;;15.30;99.90;;;;;;5052660;28;20280;-86
2023/07/28 01:03:29;;;;;;;;;;;15.30;99.90;;;;;;5052772;28;19998;-84
2023/07/28 01:06:12;;;;;;;;;;;15.20;99.90;;;;;;5052813;28;19905;-86
2023/07/28 01:08:41;;;;;;;;;;;15.30;99.90;;;;;;5036361;28;19908;-86
2023/07/28 01:11:07;;;;;;;;;;;15.30;99.90;;;;;;5035841;28;19908;-86
2023/07/28 01:13:32;;;;;;;;;;;15.30;99.90;;;;;;5036213;28;20319;-86
2023/07/28 01:16:00;;;;;;;;;;;15.30;99.90;;;;;;5052721;28;19931;-85
2023/07/28 01:18:26;;;;;;;;;;;15.20;99.90;;;;;;5067867;28;19991;-86
2023/07/28 01:20:56;;;;;;;;;;;15.30;99.90;;;;;;5052271;28;19909;-86
2023/07/28 01:23:34;;;;;;;;;;;15.30;99.90;;;;;;5052036;28;20518;-86
2023/07/28 01:26:06;;;;;;;;;;;15.30;99.90;;;;;;5052384;28;20280;-86
2023/07/28 01:29:00;;;;;;;;;;;15.30;99.90;;;;;;5068791;28;19920;-86
2023/07/28 01:31:25;;;;;;;;;;;15.30;99.90;;;;;;5033825;28;20438;-85
2023/07/28 01:33:51;;;;;;;;;;;15.30;99.90;;;;;;5034616;28;19919;-86
2023/07/28 01:36:16;;;;;;;;;;;15.30;99.90;;;;;;5051053;28;19913;-86
2023/07/28 01:38:42;;;;;;;;;;;15.30;99.90;;;;;;5034710;28;19971;-87
2023/07/28 01:41:08;;;;;;;;;;;15.30;99.90;;;;;;5052125;28;20023;-87
2023/07/28 01:43:33;;;;;;;;;;;15.30;99.90;;;;;;5051801;28;19950;-86
2023/07/28 01:45:59;;;;;;;;;;;15.30;99.90;;;;;;5052173;28;19955;-86
2023/07/28 01:48:25;;;;;;;;;;;15.30;99.90;;;;;;5035058;28;19916;-86
2023/07/28 01:50:51;;;;;;;;;;;15.30;99.90;;;;;;5085630;28;19912;-86
2023/07/28 01:53:17;;;;;;;;;;;15.30;99.90;;;;;;5051228;28;19916;-86
2023/07/28 01:55:42;;;;;;;;;;;15.30;99.90;;;;;;5060509;28;19916;-86
2023/07/28 01:58:09;;;;;;;;;;;15.30;99.90;;;;;;5051463;28;19912;-86
2023/07/28 02:00:35;;;;;;;;;;;15.30;99.90;;;;;;5051763;28;20601;-86
2023/07/28 02:03:04;;;;;;;;;;;15.30;99.90;;;;;;5035527;28;19956;-86
2023/07/28 02:05:30;;;;;;;;;;;15.30;99.90;;;;;;5050494;28;19908;-86
2023/07/28 02:07:56;;;;;;;;;;;15.30;99.90;;;;;;5051648;28;19911;-86
2023/07/28 02:10:23;;;;;;;;;;;15.30;99.90;;;;;;5068211;28;20427;-85
2023/07/28 02:12:49;;;;;;;;;;;15.30;99.90;;;;;;5034998;28;19909;-86
2023/07/28 02:15:15;;;;;;;;;;;15.30;99.90;;;;;;5052001;28;19916;-86
2023/07/28 02:17:40;;;;;;;;;;;15.30;99.90;;;;;;5040899;28;20267;-86
2023/07/28 02:20:06;;;;;;;;;;;15.30;99.90;;;;;;5051753;28;19919;-86
2023/07/28 02:22:32;;;;;;;;;;;15.30;99.90;;;;;;5052868;28;19915;-87
2023/07/28 02:25:01;;;;;;;;;;;15.30;99.90;;;;;;5072831;28;19913;-86
2023/07/28 02:27:27;;;;;;;;;;;15.30;99.90;;;;;;5057266;28;19954;-86
2023/07/28 02:29:55;;;;;;;;;;;15.30;99.90;;;;;;5107755;28;19896;-86
2023/07/28 02:32:20;;;;;;;;;;;15.30;99.90;;;;;;5069054;28;20008;-85
2023/07/28 02:34:46;;;;;;;;;;;15.30;99.90;;;;;;5039774;28;19913;-86
2023/07/28 02:37:11;;;;;;;;;;;15.30;99.90;;;;;;5054522;28;20347;-87
2023/07/28 02:39:37;;;;;;;;;;;15.20;99.90;;;;;;5087677;28;20851;-87
2023/07/28 02:42:03;;;;;;;;;;;15.20;99.90;;;;;;5053673;28;20035;-87
2023/07/28 02:44:28;;;;;;;;;;;15.20;99.90;;;;;;5053977;28;20360;-86
2023/07/28 02:46:54;;;;;;;;;;;15.20;99.90;;;;;;5036684;28;19911;-87
2023/07/28 02:49:19;;;;;;;;;;;15.20;99.90;;;;;;5053259;28;19908;-86
2023/07/28 02:51:45;;;;;;;;;;;15.20;99.90;;;;;;5038389;28;20298;-87
2023/07/28 02:54:11;;;;;;;;;;;15.30;99.90;;;;;;5055775;28;19912;-87
2023/07/28 02:56:37;;;;;;;;;;;15.30;99.90;;;;;;5038912;28;20011;-87
2023/07/28 02:59:06;;;;;;;;;;;15.20;99.90;;;;;;5055280;28;19923;-87
2023/07/28 03:01:35;;;;;;;;;;;15.20;99.90;;;;;;5038058;28;19909;-87
2023/07/28 03:04:02;;;;;;;;;;;15.20;99.90;;;;;;5055203;28;19924;-87
2023/07/28 03:06:29;;;;;;;;;;;15.20;99.90;;;;;;5038195;28;19908;-87
2023/07/28 03:08:55;;;;;;;;;;;15.20;99.90;;;;;;5038054;28;19905;-87
2023/07/28 03:11:47;;;;;;;;;;;15.20;99.90;;;;;;5046600;28;19909;-87
2023/07/28 03:14:13;;;;;;;;;;;15.20;99.90;;;;;;5038109;28;19918;-87
2023/07/28 03:16:39;;;;;;;;;;;15.20;99.90;;;;;;5037579;28;19916;-87
2023/07/28 03:19:05;;;;;;;;;;;15.20;99.90;;;;;;5038066;28;20441;-87
2023/07/28 03:21:33;;;;;;;;;;;15.20;99.90;;;;;;5054108;28;19948;-87
2023/07/28 03:23:59;;;;;;;;;;;15.20;99.90;;;;;;5037235;28;19920;-85
2023/07/28 03:26:25;;;;;;;;;;;15.20;99.90;;;;;;5053385;28;20502;-85
2023/07/28 03:28:50;;;;;;;;;;;15.30;99.90;;;;;;5054001;28;19912;-85
2023/07/28 03:31:16;;;;;;;;;;;15.20;99.90;;;;;;5049892;28;19908;-86
2023/07/28 03:33:42;;;;;;;;;;;15.20;99.90;;;;;;5053964;28;19908;-86
2023/07/28 03:36:08;;;;;;;;;;;15.20;99.90;;;;;;5053857;28;20387;-86
2023/07/28 03:38:34;;;;;;;;;;;15.20;99.90;;;;;;5037419;28;19967;-86
2023/07/28 03:44:50;;;;;;;;;;;15.20;99.90;;;;;;5052775;28;19916;-85
2023/07/28 03:47:16;;;;;;;;;;;15.20;99.90;;;;;;5053561;28;19919;-86
2023/07/28 03:49:44;;;;;;;;;;;15.20;99.90;;;;;;5053783;28;19913;-86
2023/07/28 03:52:10;;;;;;;;;;;15.20;99.90;;;;;;5066835;28;19916;-87
2023/07/28 03:54:35;;;;;;;;;;;15.20;99.90;;;;;;5053320;28;19909;-88
2023/07/28 03:57:01;;;;;;;;;;;15.20;99.90;;;;;;5038047;28;19912;-88
2023/07/28 03:59:27;;;;;;;;;;;15.20;99.90;;;;;;5053704;28;19985;-87
2023/07/28 04:01:52;;;;;;;;;;;15.20;99.90;;;;;;5036885;28;19915;-88
2023/07/28 04:04:18;;;;;;;;;;;15.20;99.90;;;;;;5037600;28;19915;-87
2023/07/28 04:06:50;;;;;;;;;;;15.20;99.90;;;;;;5037223;28;19942;-87
2023/07/28 04:09:16;;;;;;;;;;;15.20;99.90;;;;;;5037275;28;19919;-87
2023/07/28 04:11:42;;;;;;;;;;;15.20;99.90;;;;;;5037092;28;20003;-88
2023/07/28 04:14:07;;;;;;;;;;;15.30;99.90;;;;;;5037457;28;19913;-88
2023/07/28 04:16:33;;;;;;;;;;;15.30;99.90;;;;;;5036890;28;19935;-88
2023/07/28 04:19:14;;;;;;;;;;;15.30;99.90;;;;;;5037064;28;20375;-88
2023/07/28 04:21:40;;;;;;;;;;;15.30;99.90;;;;;;5036971;28;19915;-87
2023/07/28 04:24:06;;;;;;;;;;;15.30;99.90;;;;;;5036966;28;20249;-87
2023/07/28 04:26:35;;;;;;;;;;;15.30;99.90;;;;;;5053526;28;20344;-87
2023/07/28 04:29:02;;;;;;;;;;;15.30;99.90;;;;;;5053151;28;20275;-87
2023/07/28 04:31:29;;;;;;;;;;;15.30;99.90;;;;;;5053213;28;19909;-88
2023/07/28 04:34:03;;;;;;;;;;;15.30;99.90;;;;;;5038368;28;19916;-87
2023/07/28 04:36:48;;;;;;;;;;;15.30;99.90;;;;;;5053635;28;19960;-87
2023/07/28 04:39:16;;;;;;;;;;;15.30;99.90;;;;;;5036470;28;19923;-87
2023/07/28 04:41:42;;;;;;;;;;;15.30;99.90;;;;;;5053336;28;19905;-88
2023/07/28 04:44:08;;;;;;;;;;;15.30;99.90;;;;;;5036519;28;19919;-87
2023/07/28 04:46:37;;;;;;;;;;;15.30;99.90;;;;;;5052669;28;19909;-87
2023/07/28 04:49:07;;;;;;;;;;;15.30;99.90;;;;;;5037275;28;19948;-87
2023/07/28 04:51:52;;;;;;;;;;;15.30;99.90;;;;;;5053306;28;20359;-87
2023/07/28 04:54:36;;;;;;;;;;;15.30;99.90;;;;;;5053713;28;19998;-88
2023/07/28 04:57:02;;;;;;;;;;;15.30;99.90;;;;;;5036449;28;19963;-87
2023/07/28 04:59:32;;;;;;;;;;;15.30;99.90;;;;;;5037068;28;19917;-88
2023/07/28 05:01:58;;;;;;;;;;;15.30;99.90;;;;;;5036476;28;19908;-89
2023/07/28 05:04:24;;;;;;;;;;;15.30;99.90;;;;;;5037057;28;20008;-87
2023/07/28 05:06:49;;;;;;;;;;;15.30;99.90;;;;;;5035984;28;19952;-88
2023/07/28 05:09:15;;;;;;;;;;;15.40;99.90;;;;;;5036541;28;19916;-88
2023/07/28 05:11:41;;;;;;;;;;;15.40;99.90;;;;;;5036667;28;19919;-88
2023/07/28 05:14:08;;;;;;;;;;;15.40;99.90;;;;;;5036191;28;20003;-89
2023/07/28 05:16:34;;;;;;;;;;;15.40;99.90;;;;;;5036529;28;19915;-88
2023/07/28 05:19:07;;;;;;;;;;;15.40;99.90;;;;;;5053171;28;19909;-88
2023/07/28 05:21:51;;;;;;;;;;;15.40;99.90;;;;;;5052233;28;20379;-88
2023/07/28 05:24:21;;;;;;;;;;;15.40;99.90;;;;;;5036630;28;20387;-88
2023/07/28 05:30:15;;;;;;;;;;;15.40;99.90;;;;;;5048144;28;20425;-88
2023/07/28 05:32:41;;;;;;;;;;;15.40;99.90;;;;;;5035799;28;19916;-87
2023/07/28 05:35:35;;;;;;;;;;;15.40;99.90;;;;;;5048296;28;19909;-88
2023/07/28 05:38:01;;;;;;;;;;;15.40;99.90;;;;;;5036282;28;19917;-89
2023/07/28 05:40:27;;;;;;;;;;;15.40;99.90;;;;;;5052874;28;19912;-89
2023/07/28 05:43:17;;;;;;;;;;;15.50;99.90;;;;;;5069907;28;19908;-88
2023/07/28 05:45:46;;;;;;;;;;;15.50;99.90;;;;;;5052852;28;20263;-89
2023/07/28 05:51:38;;;;;;;;;;;15.50;99.90;;;;;;5051482;28;19915;-88
2023/07/28 05:54:03;;;;;;;;;;;15.50;99.90;;;;;;5035857;28;19909;-89
2023/07/28 05:56:29;;;;;;;;;;;15.40;99.90;;;;;;5035947;28;20356;-89
2023/07/28 05:58:55;;;;;;;;;;;15.50;99.90;;;;;;5052452;28;19913;-88
2023/07/28 06:01:20;;;;;;;;;;;15.50;99.90;;;;;;5036050;28;19909;-88
2023/07/28 06:04:06;;;;;;;;;;;15.50;99.90;;;;;;5052279;28;19909;-88
2023/07/28 06:06:39;;;;;;;;;;;15.50;99.90;;;;;;5036517;28;19909;-88
2023/07/28 06:09:04;;;;;;;;;;;15.50;99.90;;;;;;5035660;28;19909;-89
2023/07/28 06:11:30;;;;;;;;;;;15.50;99.90;;;;;;5024166;28;20386;-88
2023/07/28 06:13:57;;;;;;;;;;;15.60;99.90;;;;;;5048165;28;19958;-88
2023/07/28 06:16:24;;;;;;;;;;;15.60;99.90;;;;;;5034592;28;19909;-88
2023/07/28 06:18:50;;;;;;;;;;;15.60;99.90;;;;;;5030463;28;19913;-89
2023/07/28 06:21:19;;;;;;;;;;;15.50;99.90;;;;;;5033981;28;19909;-88
2023/07/28 06:23:45;;;;;;;;;;;15.60;99.90;;;;;;5041926;28;19909;-89
2023/07/28 06:26:11;;;;;;;;;;;15.50;99.90;;;;;;5038807;28;20004;-90
2023/07/28 06:28:39;;;;;;;;;;;15.60;99.90;;;;;;5039383;28;19912;-88
2023/07/28 06:31:05;;;;;;;;;;;15.50;99.90;;;;;;5037163;28;20269;-88
2023/07/28 06:33:31;;;;;;;;;;;15.50;99.90;;;;;;5050268;28;20425;-88
2023/07/28 06:35:57;;;;;;;;;;;15.60;99.90;;;;;;5038770;28;19909;-88
2023/07/28 06:38:23;;;;;;;;;;;15.50;99.90;;;;;;5039149;28;20352;-88
2023/07/28 06:40:49;;;;;;;;;;;15.60;99.90;;;;;;5055702;28;19923;-89
2023/07/28 06:43:14;;;;;;;;;;;15.70;99.90;;;;;;5038842;28;19955;-89
2023/07/28 06:45:40;;;;;;;;;;;15.70;99.90;;;;;;5071255;28;19909;-87
2023/07/28 06:48:07;;;;;;;;;;;15.70;99.90;;;;;;5051485;28;19909;-88
2023/07/28 06:50:32;;;;;;;;;;;15.70;99.90;;;;;;5052587;28;19916;-88
2023/07/28 06:52:59;;;;;;;;;;;15.70;99.90;;;;;;5035799;28;19947;-89
2023/07/28 06:55:26;;;;;;;;;;;15.70;99.90;;;;;;5038549;28;19962;-88
2023/07/28 06:57:51;;;;;;;;;;;15.70;99.90;;;;;;5043408;28;20371;-88
2023/07/28 07:00:17;;;;;;;;;;;15.60;99.90;;;;;;5038781;28;19917;-88
2023/07/28 07:02:44;;;;;;;;;;;15.70;99.90;;;;;;5067867;28;20272;-88
2023/07/28 07:05:10;;;;;;;;;;;15.70;99.90;;;;;;5045991;28;19909;-87
2023/07/28 07:07:36;;;;;;;;;;;15.80;99.90;;;;;;5038338;28;19936;-88
2023/07/28 07:10:02;;;;;;;;;;;15.80;99.90;;;;;;5037082;28;19912;-88
2023/07/28 07:12:27;;;;;;;;;;;15.70;99.90;;;;;;5050971;28;19908;-88
2023/07/28 07:14:53;;;;;;;;;;;15.70;99.90;;;;;;5037063;28;20279;-88
2023/07/28 07:17:19;;;;;;;;;;;15.70;99.90;;;;;;5052389;28;19916;-88
2023/07/28 07:19:45;;;;;;;;;;;15.70;99.90;;;;;;5030323;28;20041;-88
2023/07/28 07:22:10;;;;;;;;;;;15.80;99.90;;;;;;5038391;28;19915;-88
2023/07/28 07:24:36;;;;;;;;;;;15.70;99.90;;;;;;5037688;28;20009;-89
2023/07/28 07:27:02;;;;;;;;;;;15.70;99.90;;;;;;5037309;28;19912;-89
2023/07/28 07:29:27;;;;;;;;;;;15.70;99.90;;;;;;5037551;28;19991;-88
2023/07/28 07:31:55;;;;;;;;;;;15.70;99.90;;;;;;5049420;28;19916;-88
2023/07/28 07:34:22;;;;;;;;;;;15.80;99.90;;;;;;5034772;28;19905;-88
2023/07/28 07:36:47;;;;;;;;;;;15.80;99.90;;;;;;5052119;28;20356;-88
2023/07/28 07:39:13;;;;;;;;;;;15.80;99.90;;;;;;5052564;28;19966;-88
2023/07/28 07:41:39;;;;;;;;;;;15.70;99.90;;;;;;5050096;28;19909;-89
2023/07/28 07:44:05;;;;;;;;;;;15.80;99.90;;;;;;5037306;28;20284;-87
2023/07/28 07:46:30;;;;;;;;;;;15.80;99.90;;;;;;5037616;28;19916;-88
2023/07/28 07:48:56;;;;;;;;;;;15.80;99.90;;;;;;5051153;28;19909;-88
2023/07/28 07:51:22;;;;;;;;;;;15.80;99.90;;;;;;5037257;28;20623;-88
2023/07/28 07:53:47;;;;;;;;;;;15.70;99.90;;;;;;5085590;28;19908;-88
2023/07/28 07:56:13;;;;;;;;;;;15.70;99.90;;;;;;5058794;28;20351;-87
2023/07/28 07:58:39;;;;;;;;;;;15.70;99.90;;;;;;5052839;28;19909;-88
2023/07/28 08:01:04;;;;;;;;;;;15.70;99.90;;;;;;5034931;28;19908;-88
2023/07/28 08:03:31;;;;;;;;;;;15.70;99.90;;;;;;5037243;28;20015;-88
2023/07/28 08:05:57;;;;;;;;;;;15.80;99.90;;;;;;5051814;28;19913;-88
2023/07/28 08:08:23;;;;;;;;;;;15.80;99.90;;;;;;5033664;28;19951;-88
2023/07/28 08:10:50;;;;;;;;;;;15.80;99.90;;;;;;5037045;28;20007;-88
2023/07/28 08:13:15;;;;;;;;;;;15.80;99.90;;;;;;5066129;28;19991;-88
2023/07/28 08:15:44;;;;;;;;;;;15.80;99.90;;;;;;5054007;28;19963;-88
2023/07/28 08:18:13;;;;;;;;;;;15.90;99.90;;;;;;5071093;28;19916;-90
2023/07/28 08:20:39;;;;;;;;;;;15.90;99.90;;;;;;5058796;28;19924;-88
2023/07/28 08:23:14;;;;;;;;;;;16.00;99.90;;;;;;5038801;28;20383;-87
2023/07/28 08:25:40;;;;;;;;;;;16.10;99.90;;;;;;5053983;28;19913;-89
2023/07/28 08:28:06;;;;;;;;;;;16.10;99.90;;;;;;5039397;28;19908;-89
2023/07/28 08:30:32;;;;;;;;;;;16.10;99.90;;;;;;5086965;28;19920;-88
2023/07/28 08:32:57;;;;;;;;;;;16.20;99.90;;;;;;5053768;28;19948;-88
2023/07/28 08:35:23;;;;;;;;;;;16.30;99.90;;;;;;5056956;28;19915;-88
2023/07/28 08:37:49;;;;;;;;;;;16.40;99.90;;;;;;5036943;28;19913;-88
2023/07/28 08:40:14;;;;;;;;;;;16.40;99.90;;;;;;5070175;28;20241;-88
2023/07/28 08:42:40;;;;;;;;;;;16.30;99.90;;;;;;5036840;28;19991;-88
2023/07/28 08:45:08;;;;;;;;;;;16.30;99.90;;;;;;5087041;28;19909;-88
2023/07/28 08:47:34;;;;;;;;;;;16.40;99.90;;;;;;5036139;28;19908;-88
2023/07/28 08:49:59;;;;;;;;;;;16.40;99.90;;;;;;5036194;28;20011;-89
2023/07/28 08:52:50;;;;;;;;;;;16.50;99.90;;;;;;5086856;28;19955;-87
2023/07/28 08:55:16;;;;;;;;;;;16.40;99.90;;;;;;5036491;28;19909;-87
2023/07/28 08:57:43;;;;;;;;;;;16.40;99.90;;;;;;5036313;28;20275;-87
2023/07/28 09:00:10;;;;;;;;;;;16.50;99.90;;;;;;5036602;28;19913;-87
2023/07/28 09:02:35;;;;;;;;;;;16.60;99.90;;;;;;5036237;28;19905;-88
2023/07/28 09:05:02;;;;;;;;;;;16.50;99.90;;;;;;5036286;28;19920;-89
2023/07/28 09:07:33;;;;;;;;;;;16.50;99.90;;;;;;5052722;28;19908;-88
2023/07/28 09:10:00;;;;;;;;;;;16.50;99.90;;;;;;5052680;28;19920;-87
2023/07/28 09:12:25;;;;;;;;;;;16.50;99.90;;;;;;5035871;28;19916;-88
2023/07/28 09:14:56;;;;;;;;;;;16.70;99.90;;;;;;5035763;28;19913;-88
2023/07/28 09:17:21;;;;;;;;;;;17.00;99.90;;;;;;5069470;28;19916;-88
2023/07/28 09:19:54;;;;;;;;;;;17.40;99.90;;;;;;5035905;28;19912;-88
2023/07/28 09:25:48;;;;;;;;;;;17.90;99.90;;;;;;5050436;28;19915;-88
2023/07/28 09:28:14;;;;;;;;;;;17.40;99.90;;;;;;5070156;28;19952;-88
2023/07/28 09:30:49;;;;;;;;;;;17.20;99.90;;;;;;5052530;28;20327;-89
2023/07/28 09:33:39;;;;;;;;;;;17.30;99.90;;;;;;5051944;28;20352;-88
2023/07/28 09:36:08;;;;;;;;;;;17.30;99.90;;;;;;5051872;28;20399;-88
2023/07/28 09:38:35;;;;;;;;;;;17.60;99.90;;;;;;5030153;28;19909;-87
2023/07/28 09:41:05;;;;;;;;;;;18.00;99.90;;;;;;5033096;28;19917;-88
2023/07/28 09:43:31;;;;;;;;;;;18.30;99.90;;;;;;5035757;28;19908;-89
2023/07/28 09:45:57;;;;;;;;;;;18.50;99.90;;;;;;5035732;28;19931;-88
2023/07/28 09:48:24;;;;;;;;;;;18.60;99.90;;;;;;5035208;28;19912;-89
2023/07/28 09:51:26;;;;;;;;;;;18.50;99.90;;;;;;5056617;28;19913;-88
2023/07/28 09:53:58;;;;;;;;;;;18.40;99.90;;;;;;5043153;28;19919;-89
2023/07/28 09:56:27;;;;;;;;;;;19.00;99.90;;;;;;5035598;28;19909;-88
2023/07/28 09:58:55;;;;;;;;;;;20.10;99.90;;;;;;5035799;28;19913;-88
2023/07/28 10:01:24;;;;;;;;;;;20.90;99.90;;;;;;5037265;28;20024;-88
2023/07/28 10:03:50;;;;;;;;;;;21.20;99.90;;;;;;5050517;28;19909;-89
2023/07/28 10:06:16;;;;;;;;;;;20.80;99.90;;;;;;5050797;28;19931;-87
2023/07/28 10:08:43;;;;;;;;;;;20.70;99.90;;;;;;5049926;28;19916;-88
2023/07/28 10:11:09;;;;;;;;;;;20.30;99.90;;;;;;5039600;28;19915;-88
2023/07/28 10:13:43;;;;;;;;;;;20.30;99.90;;;;;;5039594;28;19912;-88
2023/07/28 10:16:14;;;;;;;;;;;20.10;99.90;;;;;;5038827;28;20245;-88
2023/07/28 10:18:40;;;;;;;;;;;20.10;99.90;;;;;;5037323;28;19913;-88
2023/07/28 10:21:13;;;;;;;;;;;20.00;99.90;;;;;;5072433;28;19909;-88
2023/07/28 10:23:38;;;;;;;;;;;20.00;99.90;;;;;;5056183;28;19931;-88
2023/07/28 10:26:09;;;;;;;;;;;20.80;99.90;;;;;;5039556;28;19909;-88
2023/07/28 10:28:40;;;;;;;;;;;21.80;99.90;;;;;;5056234;28;19996;-87
2023/07/28 10:31:13;;;;;;;;;;;22.10;99.90;;;;;;5039193;28;19909;-87
2023/07/28 10:33:40;;;;;;;;;;;21.70;99.90;;;;;;5055778;28;19951;-88
2023/07/28 10:36:13;;;;;;;;;;;22.20;99.90;;;;;;5038706;28;19913;-88
2023/07/28 10:38:39;;;;;;;;;;;22.60;99.90;;;;;;5055354;28;19915;-87
2023/07/28 10:41:05;;;;;;;;;;;22.80;99.90;;;;;;5038831;28;20267;-86
2023/07/28 10:43:31;;;;;;;;;;;23.10;99.90;;;;;;5038581;28;19958;-87
2023/07/28 10:45:56;;;;;;;;;;;23.20;99.90;;;;;;5038374;28;19912;-88
2023/07/28 10:48:22;;;;;;;;;;;22.80;99.90;;;;;;5089118;28;20308;-88
2023/07/28 10:50:49;;;;;;;;;;;22.30;99.90;;;;;;5038314;28;19909;-89
2023/07/28 10:53:15;;;;;;;;;;;21.70;99.90;;;;;;5038486;28;19912;-89
2023/07/28 10:55:41;;;;;;;;;;;21.30;99.90;;;;;;5055471;28;20549;-87
2023/07/28 10:58:06;;;;;;;;;;;21.00;99.90;;;;;;5038535;28;19995;-88
2023/07/28 11:00:32;;;;;;;;;;;20.70;99.90;;;;;;5038596;28;20275;-88
2023/07/28 11:02:57;;;;;;;;;;;20.60;99.90;;;;;;5038661;28;19959;-88
2023/07/28 11:05:27;;;;;;;;;;;21.30;99.90;;;;;;5055441;28;19979;-90
2023/07/28 11:07:57;;;;;;;;;;;22.10;99.90;;;;;;5038643;28;20315;-89
2023/07/28 11:10:23;;;;;;;;;;;21.80;99.90;;;;;;5054601;28;19915;-89
2023/07/28 11:12:50;;;;;;;;;;;21.30;99.90;;;;;;5054219;28;19909;-88
2023/07/28 11:15:17;;;;;;;;;;;20.90;99.90;;;;;;5055073;28;19979;-88
2023/07/28 11:17:45;;;;;;;;;;;20.70;99.90;;;;;;5038714;28;20008;-88
2023/07/28 11:20:16;;;;;;;;;;;20.90;99.90;;;;;;5055189;28;19970;-88
2023/07/28 11:22:43;;;;;;;;;;;21.20;99.90;;;;;;5038466;28;19919;-88
2023/07/28 11:25:09;;;;;;;;;;;21.40;99.90;;;;;;5054965;28;19909;-88
2023/07/28 11:27:38;;;;;;;;;;;21.10;99.90;;;;;;5038069;28;19958;-89
2023/07/28 11:30:05;;;;;;;;;;;20.80;99.90;;;;;;5054831;28;20039;-89
2023/07/28 11:32:31;;;;;;;;;;;20.40;99.90;;;;;;5038064;28;20409;-88
2023/07/28 11:35:03;;;;;;;;;;;20.10;99.90;;;;;;5038167;28;20000;-88
2023/07/28 11:37:29;;;;;;;;;;;20.00;99.90;;;;;;5038213;28;19912;-88
2023/07/28 11:39:55;;;;;;;;;;;19.70;99.90;;;;;;5054657;28;19935;-89
2023/07/28 11:42:21;;;;;;;;;;;19.50;99.90;;;;;;5055981;28;19947;-88
2023/07/28 11:44:46;;;;;;;;;;;19.60;99.90;;;;;;5037994;28;20355;-88
2023/07/28 11:47:16;;;;;;;;;;;19.70;99.90;;;;;;5054622;28;19931;-88
2023/07/28 11:49:46;;;;;;;;;;;20.10;99.90;;;;;;5038099;28;19966;-89
2023/07/28 11:52:11;;;;;;;;;;;20.50;99.90;;;;;;5037249;28;20296;-89
2023/07/28 11:54:37;;;;;;;;;;;21.00;99.90;;;;;;5055040;28;19911;-89
2023/07/28 11:57:02;;;;;;;;;;;21.10;99.90;;;;;;5054486;28;19908;-89
2023/07/28 11:59:28;;;;;;;;;;;21.10;99.90;;;;;;5054489;28;19919;-89
2023/07/28 12:01:58;;;;;;;;;;;21.10;99.90;;;;;;5037497;28;19908;-89
2023/07/28 12:04:25;;;;;;;;;;;21.30;99.90;;;;;;5071088;28;20253;-89
2023/07/28 12:07:13;;;;;;;;;;;21.20;99.90;;;;;;5037535;28;19995;-88
2023/07/28 12:09:45;;;;;;;;;;;21.10;99.90;;;;;;5033661;28;19908;-88
2023/07/28 12:12:10;;;;;;;;;;;21.00;99.90;;;;;;5069914;28;19916;-88
2023/07/28 12:14:36;;;;;;;;;;;20.80;99.90;;;;;;5066525;28;19909;-89
2023/07/28 12:17:02;;;;;;;;;;;20.30;99.90;;;;;;5036501;28;19913;-88
2023/07/28 12:19:28;;;;;;;;;;;20.10;99.90;;;;;;5051266;28;19920;-88
2023/07/28 12:21:53;;;;;;;;;;;20.10;99.90;;;;;;5069996;28;19909;-89
2023/07/28 12:24:19;;;;;;;;;;;20.30;99.90;;;;;;5050289;28;20229;-88
2023/07/28 12:26:45;;;;;;;;;;;20.30;99.90;;;;;;5052831;28;19908;-88
2023/07/28 12:29:11;;;;;;;;;;;20.60;99.90;;;;;;5036287;28;20340;-88
2023/07/28 12:31:37;;;;;;;;;;;20.70;99.90;;;;;;5060253;28;20012;-88
2023/07/28 12:34:02;;;;;;;;;;;20.70;99.90;;;;;;5036965;28;20249;-88
2023/07/28 12:39:57;;;;;;;;;;;20.40;99.90;;;;;;5049095;28;20367;-88
2023/07/28 12:42:22;;;;;;;;;;;20.30;99.90;;;;;;5052720;28;19909;-88
2023/07/28 12:44:48;;;;;;;;;;;20.00;99.90;;;;;;5051653;28;19909;-88
2023/07/28 12:47:14;;;;;;;;;;;20.00;99.90;;;;;;5045613;28;20379;-88
2023/07/28 12:49:39;;;;;;;;;;;20.00;99.90;;;;;;5050959;28;19916;-88
2023/07/28 12:52:12;;;;;;;;;;;19.80;99.90;;;;;;5032856;28;19967;-88
2023/07/28 12:54:39;;;;;;;;;;;19.60;99.90;;;;;;5032521;28;20003;-87
2023/07/28 12:57:07;;;;;;;;;;;19.50;99.90;;;;;;5035854;28;19905;-88
2023/07/28 12:59:32;;;;;;;;;;;19.50;99.90;;;;;;5051441;28;20376;-88
2023/07/28 13:01:58;;;;;;;;;;;19.60;99.90;;;;;;5034307;28;19939;-88
2023/07/28 13:04:24;;;;;;;;;;;19.70;99.90;;;;;;5034549;28;19960;-88
2023/07/28 13:06:49;;;;;;;;;;;19.80;99.90;;;;;;5052217;28;19909;-88
2023/07/28 13:09:15;;;;;;;;;;;19.50;99.90;;;;;;5046068;28;19909;-87
2023/07/28 13:11:40;;;;;;;;;;;19.40;99.90;;;;;;5050746;28;19970;-88
2023/07/28 13:14:06;;;;;;;;;;;19.30;99.90;;;;;;5044405;28;19909;-88
2023/07/28 13:16:36;;;;;;;;;;;19.10;99.90;;;;;;5049900;28;20403;-88
2023/07/28 13:19:01;;;;;;;;;;;18.90;99.90;;;;;;5045613;28;20490;-88
2023/07/28 13:21:27;;;;;;;;;;;18.70;99.90;;;;;;5043048;28;19944;-88
2023/07/28 13:23:52;;;;;;;;;;;18.40;99.90;;;;;;5038370;28;19909;-88
2023/07/28 13:26:18;;;;;;;;;;;18.20;99.90;;;;;;5071706;28;19908;-87
2023/07/28 13:28:46;;;;;;;;;;;18.00;99.90;;;;;;5058563;28;20466;-87
2023/07/28 13:31:12;;;;;;;;;;;17.90;99.90;;;;;;5035681;28;20327;-87
2023/07/28 13:33:38;;;;;;;;;;;17.80;99.90;;;;;;5057780;28;20344;-87
2023/07/28 13:36:07;;;;;;;;;;;17.80;99.90;;;;;;5051745;28;19913;-87
2023/07/28 13:38:32;;;;;;;;;;;17.80;99.90;;;;;;5035703;28;19967;-87
2023/07/28 13:40:58;;;;;;;;;;;17.70;99.90;;;;;;5035724;28;19959;-87
2023/07/28 13:43:23;;;;;;;;;;;17.60;99.90;;;;;;5035552;28;19916;-88
2023/07/28 13:45:49;;;;;;;;;;;17.50;99.90;;;;;;5052187;28;19913;-87
2023/07/28 13:48:14;;;;;;;;;;;17.50;99.90;;;;;;5035762;28;19909;-87
2023/07/28 13:50:40;;;;;;;;;;;17.40;99.90;;;;;;5035113;28;19908;-87
2023/07/28 13:53:06;;;;;;;;;;;17.30;99.90;;;;;;5035363;28;20442;-87
2023/07/28 13:55:31;;;;;;;;;;;17.20;99.90;;;;;;5032067;28;19913;-88
2023/07/28 13:57:57;;;;;;;;;;;17.10;99.90;;;;;;5051485;28;19912;-88
2023/07/28 14:00:22;;;;;;;;;;;17.00;99.90;;;;;;5034872;28;19913;-87
2023/07/28 14:02:48;;;;;;;;;;;17.00;99.90;;;;;;5042043;28;20631;-87
2023/07/28 14:05:14;;;;;;;;;;;16.90;99.90;;;;;;5034746;28;19916;-87
2023/07/28 14:07:39;;;;;;;;;;;16.90;99.90;;;;;;5050776;28;19935;-87
2023/07/28 14:10:05;;;;;;;;;;;16.90;99.90;;;;;;5034610;28;20351;-87
2023/07/28 14:12:31;;;;;;;;;;;16.90;99.90;;;;;;5034443;28;19917;-87
2023/07/28 14:14:56;;;;;;;;;;;16.90;99.90;;;;;;5051285;28;19909;-87
2023/07/28 14:17:22;;;;;;;;;;;16.90;99.90;;;;;;5034734;28;20245;-88
2023/07/28 14:19:47;;;;;;;;;;;17.00;99.90;;;;;;5050838;28;19917;-88
2023/07/28 14:22:13;;;;;;;;;;;17.00;99.90;;;;;;5034661;28;19951;-88
2023/07/28 14:24:39;;;;;;;;;;;17.00;99.90;;;;;;5050906;28;24185;-87
2023/07/28 14:27:05;;;;;;;;;;;17.00;99.90;;;;;;5034161;28;24121;-88
2023/07/28 14:29:30;;;;;;;;;;;16.90;99.90;;;;;;5050530;28;19908;-88
2023/07/28 14:31:56;;;;;;;;;;;16.90;99.90;;;;;;5034200;28;19905;-89
2023/07/28 14:34:50;;;;;;;;;;;16.90;99.90;;;;;;5050468;28;20368;-88
2023/07/28 14:37:15;;;;;;;;;;;16.90;99.90;;;;;;5033892;28;19916;-88